createdAt,value
2018-06-21T00:01:10.022Z,99530.00
2018-06-21T00:03:14.456Z,99527.00
2018-06-21T00:05:19.451Z,99525.00
2018-06-21T00:07:24.654Z,99528.00
2018-06-21T00:09:29.103Z,99529.00
2018-06-21T00:11:33.547Z,99523.00
2018-06-21T00:13:38.217Z,99513.00
2018-06-21T00:15:42.608Z,99521.00
2018-06-21T00:17:47.107Z,99521.00
2018-06-21T00:19:51.509Z,99513.00
2018-06-21T00:21:56.025Z,99518.00
2018-06-21T00:24:00.446Z,99518.00
2018-06-21T00:26:05.007Z,99509.00
2018-06-21T00:28:09.479Z,99509.00
2018-06-21T00:30:14.026Z,99503.00
2018-06-21T00:32:18.503Z,99506.00
2018-06-21T00:34:23.297Z,99503.00
2018-06-21T00:36:27.719Z,99505.00
2018-06-21T00:38:32.195Z,99497.00
2018-06-21T00:40:36.616Z,99495.00
2018-06-21T00:42:40.786Z,99491.00
2018-06-21T00:44:45.200Z,99497.00
2018-06-21T00:46:49.659Z,99501.00
2018-06-21T00:48:54.082Z,99488.00
2018-06-21T00:50:58.530Z,99490.00
2018-06-21T00:53:02.999Z,99486.00
2018-06-21T00:55:07.544Z,99489.00
2018-06-21T00:57:11.999Z,99491.00
2018-06-21T00:59:16.426Z,99485.00
2018-06-21T01:01:22.982Z,99475.00
2018-06-21T01:03:31.202Z,99476.00
2018-06-21T01:05:39.743Z,99471.00
2018-06-21T01:07:47.890Z,99469.00
2018-06-21T01:09:54.606Z,99471.00
2018-06-21T01:12:02.147Z,99470.00
2018-06-21T01:14:08.648Z,99473.00
2018-06-21T01:16:15.233Z,99474.00
2018-06-21T01:18:22.993Z,99461.00
2018-06-21T01:20:29.437Z,99462.00
2018-06-21T01:22:36.766Z,99467.00
2018-06-21T01:24:44.736Z,99459.00
2018-06-21T01:26:51.102Z,99449.00
2018-06-21T01:28:56.936Z,99460.00
2018-06-21T01:31:03.102Z,99444.00
2018-06-21T01:33:10.952Z,99437.00
2018-06-21T01:35:17.574Z,99442.00
2018-06-21T01:37:24.807Z,99439.00
2018-06-21T01:39:30.846Z,99436.00
2018-06-21T01:41:39.613Z,99435.00
2018-06-21T01:43:47.299Z,99441.00
2018-06-21T01:45:55.139Z,99432.00
2018-06-21T01:48:01.964Z,99425.00
2018-06-21T01:50:09.283Z,99424.00
2018-06-21T01:52:15.166Z,99430.00
2018-06-21T01:54:23.919Z,99427.00
2018-06-21T01:56:32.150Z,99419.00
2018-06-21T01:58:39.810Z,99414.00
2018-06-21T02:00:44.274Z,99424.00
2018-06-21T02:02:49.922Z,99421.00
2018-06-21T02:04:56.458Z,99408.00
2018-06-21T02:07:02.303Z,99405.00
2018-06-21T02:09:11.945Z,99407.00
2018-06-21T02:11:19.194Z,99399.00
2018-06-21T02:13:25.875Z,99404.00
2018-06-21T02:15:32.185Z,99392.00
2018-06-21T02:17:39.337Z,99389.00
2018-06-21T02:19:43.788Z,99389.00
2018-06-21T02:21:48.318Z,99393.00
2018-06-21T02:23:52.738Z,99382.00
2018-06-21T02:25:57.150Z,99374.00
2018-06-21T02:28:01.581Z,99369.00
2018-06-21T02:30:06.370Z,99372.00
2018-06-21T02:32:10.970Z,99359.00
2018-06-21T02:34:15.467Z,99359.00
2018-06-21T02:36:19.955Z,99355.00
2018-06-21T02:38:24.358Z,99352.00
2018-06-21T02:40:28.760Z,99355.00
2018-06-21T02:42:33.195Z,99367.00
2018-06-21T02:44:37.591Z,99358.00
2018-06-21T02:46:42.039Z,99355.00
2018-06-21T02:48:46.501Z,99347.00
2018-06-21T02:50:50.903Z,99353.00
2018-06-21T02:52:55.297Z,99356.00
2018-06-21T02:54:59.784Z,99350.00
2018-06-21T02:57:04.200Z,99359.00
2018-06-21T02:59:08.687Z,99354.00
2018-06-21T03:01:13.160Z,99345.00
2018-06-21T03:03:17.621Z,99339.00
2018-06-21T03:05:22.088Z,99340.00
2018-06-21T03:07:26.477Z,99337.00
2018-06-21T03:09:30.883Z,99336.00
2018-06-21T03:11:35.454Z,99337.00
2018-06-21T03:13:39.597Z,99331.00
2018-06-21T03:15:43.990Z,99343.00
2018-06-21T03:17:48.375Z,99337.00
2018-06-21T03:19:52.802Z,99333.00
2018-06-21T03:21:57.490Z,99332.00
2018-06-21T03:24:02.198Z,99335.00
2018-06-21T03:26:06.811Z,99330.00
2018-06-21T03:28:11.226Z,99336.00
2018-06-21T03:30:15.674Z,99339.00
2018-06-21T03:32:20.114Z,99343.00
2018-06-21T03:34:24.539Z,99342.00
2018-06-21T03:36:28.946Z,99340.00
2018-06-21T03:38:33.394Z,99337.00
2018-06-21T03:40:38.439Z,99346.00
2018-06-21T03:42:42.931Z,99342.00
2018-06-21T03:44:47.347Z,99341.00
2018-06-21T03:46:51.775Z,99349.00
2018-06-21T03:48:56.167Z,99348.00
2018-06-21T03:51:00.700Z,99344.00
2018-06-21T03:53:06.108Z,99347.00
2018-06-21T03:55:10.559Z,99346.00
2018-06-21T03:57:14.972Z,99355.00
2018-06-21T03:59:19.783Z,99350.00
2018-06-21T04:01:24.196Z,99339.00
2018-06-21T04:03:32.932Z,99339.00
2018-06-21T04:05:38.594Z,99336.00
2018-06-21T04:07:44.798Z,99324.00
2018-06-21T04:09:52.296Z,99329.00
2018-06-21T04:11:57.946Z,99330.00
2018-06-21T04:14:02.509Z,99327.00
2018-06-21T04:16:10.709Z,99333.00
2018-06-21T04:18:22.178Z,99326.00
2018-06-21T04:20:30.117Z,99323.00
2018-06-21T04:22:34.764Z,99323.00
2018-06-21T04:24:39.280Z,99307.00
2018-06-21T04:26:43.810Z,99318.00
2018-06-21T04:28:48.215Z,99310.00
2018-06-21T04:30:52.927Z,99305.00
2018-06-21T04:32:57.423Z,99296.00
2018-06-21T04:35:01.887Z,99285.00
2018-06-21T04:37:07.423Z,99283.00
2018-06-21T04:39:11.823Z,99288.00
2018-06-21T04:41:16.247Z,99278.00
2018-06-21T04:43:22.700Z,99268.00
2018-06-21T04:45:27.525Z,99263.00
2018-06-21T04:47:31.959Z,99263.00
2018-06-21T04:49:36.466Z,99253.00
2018-06-21T04:51:40.991Z,99254.00
2018-06-21T04:53:45.504Z,99260.00
2018-06-21T04:55:49.887Z,99266.00
2018-06-21T04:57:54.331Z,99277.00
2018-06-21T04:59:59.096Z,99282.00
2018-06-21T05:02:03.485Z,99282.00
2018-06-21T05:04:08.029Z,99287.00
2018-06-21T05:06:12.455Z,99275.00
2018-06-21T05:08:16.953Z,99279.00
2018-06-21T05:10:21.462Z,99279.00
2018-06-21T05:12:25.881Z,99280.00
2018-06-21T05:14:30.324Z,99279.00
2018-06-21T05:16:34.712Z,99279.00
2018-06-21T05:18:39.125Z,99280.00
2018-06-21T05:20:46.782Z,99290.00
2018-06-21T05:22:53.974Z,99271.00
2018-06-21T05:24:58.710Z,99277.00
2018-06-21T05:27:03.103Z,99273.00
2018-06-21T05:29:07.478Z,99267.00
2018-06-21T05:31:11.934Z,99265.00
2018-06-21T05:33:16.399Z,99270.00
2018-06-21T05:35:20.843Z,99273.00
2018-06-21T05:37:25.519Z,99269.00
2018-06-21T05:39:33.630Z,99268.00
2018-06-21T05:41:43.083Z,99275.00
2018-06-21T05:43:50.477Z,99262.00
2018-06-21T05:45:54.963Z,99265.00
2018-06-21T05:48:00.866Z,99267.00
2018-06-21T05:50:06.059Z,99252.00
2018-06-21T05:52:10.967Z,99262.00
2018-06-21T05:54:15.427Z,99259.00
2018-06-21T05:56:19.875Z,99251.00
2018-06-21T05:58:24.307Z,99254.00
2018-06-21T06:00:29.017Z,99250.00
2018-06-21T06:02:33.423Z,99255.00
2018-06-21T06:04:37.835Z,99258.00
2018-06-21T06:06:42.304Z,99260.00
2018-06-21T06:08:46.718Z,99261.00
2018-06-21T06:10:51.160Z,99266.00
2018-06-21T06:12:55.625Z,99262.00
2018-06-21T06:15:00.571Z,99263.00
2018-06-21T06:17:05.124Z,99268.00
2018-06-21T06:19:09.645Z,99276.00
2018-06-21T06:21:16.287Z,99283.00
2018-06-21T06:23:25.589Z,99289.00
2018-06-21T06:25:31.287Z,99275.00
2018-06-21T06:27:35.781Z,99268.00
2018-06-21T06:29:40.255Z,99268.00
2018-06-21T06:31:44.738Z,99278.00
2018-06-21T06:33:49.242Z,99280.00
2018-06-21T06:35:55.477Z,99276.00
2018-06-21T06:38:01.067Z,99279.00
2018-06-21T06:40:05.554Z,99289.00
2018-06-21T06:42:10.043Z,99288.00
2018-06-21T06:44:14.490Z,99284.00
2018-06-21T06:46:18.925Z,99291.00
2018-06-21T06:48:23.418Z,99298.00
2018-06-21T06:50:27.844Z,99306.00
2018-06-21T06:52:33.512Z,99304.00
2018-06-21T06:54:38.018Z,99307.00
2018-06-21T06:56:42.480Z,99299.00
2018-06-21T06:58:47.025Z,99300.00
2018-06-21T07:00:51.502Z,99311.00
2018-06-21T07:02:56.025Z,99308.00
2018-06-21T07:05:00.483Z,99315.00
2018-06-21T07:07:05.059Z,99313.00
2018-06-21T07:09:10.287Z,99332.00
2018-06-21T07:11:15.538Z,99333.00
2018-06-21T07:13:19.949Z,99346.00
2018-06-21T07:15:25.250Z,99358.00
2018-06-21T07:17:29.739Z,99361.00
2018-06-21T07:19:34.186Z,99364.00
2018-06-21T07:21:40.387Z,99358.00
2018-06-21T07:23:44.917Z,99364.00
2018-06-21T07:25:49.511Z,99371.00
2018-06-21T07:27:53.978Z,99367.00
2018-06-21T07:29:58.455Z,99382.00
2018-06-21T07:32:02.900Z,99384.00
2018-06-21T07:34:08.072Z,99376.00
2018-06-21T07:36:12.537Z,99380.00
2018-06-21T07:38:17.192Z,99377.00
2018-06-21T07:40:22.182Z,99383.00
2018-06-21T07:42:26.705Z,99387.00
2018-06-21T07:44:31.114Z,99382.00
2018-06-21T07:46:36.558Z,99394.00
2018-06-21T07:48:41.452Z,99394.00
2018-06-21T07:50:45.918Z,99385.00
2018-06-21T07:52:50.378Z,99396.00
2018-06-21T07:54:55.514Z,99402.00
2018-06-21T07:56:59.999Z,99392.00
2018-06-21T07:59:04.748Z,99393.00
2018-06-21T08:01:09.156Z,99395.00
2018-06-21T08:03:13.623Z,99394.00
2018-06-21T08:05:18.043Z,99404.00
2018-06-21T08:07:25.683Z,99396.00
2018-06-21T08:09:30.111Z,99415.00
2018-06-21T08:11:34.593Z,99408.00
2018-06-21T08:13:39.088Z,99407.00
2018-06-21T08:15:43.507Z,99402.00
2018-06-21T08:17:47.984Z,99412.00
2018-06-21T08:19:52.402Z,99405.00
2018-06-21T08:21:56.871Z,99409.00
2018-06-21T08:24:03.900Z,99420.00
2018-06-21T08:26:10.714Z,99411.00
2018-06-21T08:28:16.972Z,99424.00
2018-06-21T08:30:24.411Z,99431.00
2018-06-21T08:32:30.172Z,99429.00
2018-06-21T08:34:38.883Z,99440.00
2018-06-21T08:36:52.521Z,99443.00
2018-06-21T08:39:06.906Z,99437.00
2018-06-21T08:41:13.420Z,99458.00
2018-06-21T08:43:17.885Z,99459.00
2018-06-21T08:45:22.353Z,99468.00
2018-06-21T08:47:31.083Z,99472.00
2018-06-21T08:49:35.732Z,99465.00
2018-06-21T08:51:40.211Z,99466.00
2018-06-21T08:53:44.788Z,99475.00
2018-06-21T08:55:49.400Z,99473.00
2018-06-21T08:57:53.838Z,99476.00
2018-06-21T08:59:58.281Z,99481.00
2018-06-21T09:02:02.767Z,99485.00
2018-06-21T09:04:10.398Z,99505.00
2018-06-21T09:06:15.477Z,99513.00
2018-06-21T09:08:19.990Z,99509.00
2018-06-21T09:10:24.446Z,99511.00
2018-06-21T09:12:33.836Z,99524.00
2018-06-21T09:14:38.270Z,99524.00
2018-06-21T09:16:42.693Z,99520.00
2018-06-21T09:18:47.145Z,99517.00
2018-06-21T09:20:51.534Z,99522.00
2018-06-21T09:22:56.028Z,99514.00
2018-06-21T09:25:00.931Z,99526.00
2018-06-21T09:27:05.626Z,99532.00
2018-06-21T09:29:09.755Z,99521.00
2018-06-21T09:31:14.185Z,99538.00
2018-06-21T09:33:18.637Z,99542.00
2018-06-21T09:35:26.817Z,99544.00
2018-06-21T09:37:36.514Z,99538.00
2018-06-21T09:39:46.311Z,99556.00
2018-06-21T09:41:56.035Z,99564.00
2018-06-21T09:44:05.666Z,99560.00
2018-06-21T09:46:15.393Z,99580.00
2018-06-21T09:48:24.949Z,99568.00
2018-06-21T09:50:29.423Z,99561.00
2018-06-21T09:52:33.858Z,99566.00
2018-06-21T09:54:37.990Z,99569.00
2018-06-21T09:56:42.732Z,99565.00
2018-06-21T09:58:47.207Z,99546.00
2018-06-21T10:00:56.807Z,99554.00
2018-06-21T10:03:01.315Z,99548.00
2018-06-21T10:05:05.854Z,99543.00
2018-06-21T10:07:10.312Z,99557.00
2018-06-21T10:09:14.702Z,99564.00
2018-06-21T10:11:19.123Z,99568.00
2018-06-21T10:13:23.556Z,99575.00
2018-06-21T10:15:27.954Z,99578.00
2018-06-21T10:17:32.375Z,99574.00
2018-06-21T10:19:38.173Z,99570.00
2018-06-21T10:21:43.173Z,99574.00
2018-06-21T10:23:47.619Z,99562.00
2018-06-21T10:25:52.122Z,99575.00
2018-06-21T10:27:56.619Z,99574.00
2018-06-21T10:30:01.399Z,99585.00
2018-06-21T10:32:05.850Z,99596.00
2018-06-21T10:34:10.302Z,99603.00
2018-06-21T10:36:14.724Z,99590.00
2018-06-21T10:38:19.728Z,99594.00
2018-06-21T10:40:24.161Z,99583.00
2018-06-21T10:42:28.665Z,99581.00
2018-06-21T10:44:33.113Z,99598.00
2018-06-21T10:46:37.647Z,99582.00
2018-06-21T10:48:42.127Z,99603.00
2018-06-21T10:50:47.016Z,99605.00
2018-06-21T10:52:51.659Z,99597.00
2018-06-21T10:55:00.722Z,99603.00
2018-06-21T10:57:06.109Z,99600.00
2018-06-21T10:59:10.927Z,99601.00
2018-06-21T11:01:15.367Z,99602.00
2018-06-21T11:03:20.039Z,99606.00
2018-06-21T11:05:24.411Z,99607.00
2018-06-21T11:07:28.940Z,99629.00
2018-06-21T11:09:33.412Z,99621.00
2018-06-21T11:11:37.935Z,99625.00
2018-06-21T11:13:42.568Z,99621.00
2018-06-21T11:15:47.434Z,99611.00
2018-06-21T11:17:51.894Z,99614.00
2018-06-21T11:19:56.551Z,99633.00
2018-06-21T11:22:01.086Z,99639.00
2018-06-21T11:24:06.502Z,99636.00
2018-06-21T11:26:10.961Z,99633.00
2018-06-21T11:28:15.456Z,99640.00
2018-06-21T11:30:19.967Z,99646.00
2018-06-21T11:32:24.829Z,99637.00
2018-06-21T11:34:29.301Z,99651.00
2018-06-21T11:36:34.072Z,99655.00
2018-06-21T11:38:38.747Z,99649.00
2018-06-21T11:40:43.228Z,99654.00
2018-06-21T11:42:48.299Z,99649.00
2018-06-21T11:44:52.968Z,99647.00
2018-06-21T11:46:58.717Z,99659.00
2018-06-21T11:49:04.990Z,99662.00
2018-06-21T11:51:10.993Z,99665.00
2018-06-21T11:53:15.957Z,99671.00
2018-06-21T11:55:20.683Z,99668.00
2018-06-21T11:57:25.648Z,99663.00
2018-06-21T11:59:30.831Z,99672.00
2018-06-21T12:01:36.463Z,99679.00
2018-06-21T12:03:41.561Z,99685.00
2018-06-21T12:05:46.067Z,99683.00
2018-06-21T12:07:50.483Z,99680.00
2018-06-21T12:09:54.947Z,99684.00
2018-06-21T12:11:59.430Z,99699.00
2018-06-21T12:14:04.989Z,99701.00
2018-06-21T12:16:09.625Z,99696.00
2018-06-21T12:18:14.042Z,99691.00
2018-06-21T12:20:18.547Z,99694.00
2018-06-21T12:22:23.378Z,99703.00
2018-06-21T12:24:27.847Z,99716.00
2018-06-21T12:26:33.562Z,99710.00
2018-06-21T12:28:38.041Z,99711.00
2018-06-21T12:30:42.810Z,99700.00
2018-06-21T12:32:47.234Z,99711.00
2018-06-21T12:34:51.667Z,99699.00
2018-06-21T12:36:56.230Z,99720.00
2018-06-21T12:39:00.696Z,99708.00
2018-06-21T12:41:05.200Z,99712.00
2018-06-21T12:43:09.585Z,99721.00
2018-06-21T12:45:14.957Z,99720.00
2018-06-21T12:47:19.427Z,99734.00
2018-06-21T12:49:23.679Z,99730.00
2018-06-21T12:51:28.071Z,99746.00
2018-06-21T12:53:32.488Z,99738.00
2018-06-21T12:55:36.960Z,99750.00
2018-06-21T12:57:41.371Z,99734.00
2018-06-21T12:59:45.837Z,99749.00
2018-06-21T13:01:50.363Z,99746.00
2018-06-21T13:03:54.800Z,99744.00
2018-06-21T13:05:59.400Z,99752.00
2018-06-21T13:08:03.818Z,99759.00
2018-06-21T13:10:25.268Z,99756.00
2018-06-21T13:12:48.328Z,99762.00
2018-06-21T13:14:52.754Z,99766.00
2018-06-21T13:16:57.350Z,99764.00
2018-06-21T13:19:01.731Z,99770.00
2018-06-21T13:21:06.881Z,99771.00
2018-06-21T13:23:11.396Z,99783.00
2018-06-21T13:25:15.863Z,99783.00
2018-06-21T13:27:20.361Z,99785.00
2018-06-21T13:29:25.080Z,99782.00
2018-06-21T13:31:29.526Z,99791.00
2018-06-21T13:33:33.979Z,99788.00
2018-06-21T13:35:39.490Z,99784.00
2018-06-21T13:37:43.968Z,99776.00
2018-06-21T13:39:48.466Z,99794.00
2018-06-21T13:41:52.959Z,99796.00
2018-06-21T13:43:57.421Z,99801.00
2018-06-21T13:46:01.881Z,99802.00
2018-06-21T13:48:06.351Z,99812.00
2018-06-21T13:50:10.770Z,99804.00
2018-06-21T13:52:15.249Z,99809.00
2018-06-21T13:54:19.651Z,99821.00
2018-06-21T13:56:24.129Z,99818.00
2018-06-21T13:58:28.591Z,99812.00
2018-06-21T14:00:33.168Z,99820.00
2018-06-21T14:02:37.726Z,99819.00
2018-06-21T14:04:42.124Z,99822.00
2018-06-21T14:06:46.577Z,99824.00
2018-06-21T14:08:51.047Z,99843.00
2018-06-21T14:10:55.455Z,99834.00
2018-06-21T14:12:59.904Z,99828.00
2018-06-21T14:15:04.379Z,99828.00
2018-06-21T14:17:08.853Z,99841.00
2018-06-21T14:19:13.230Z,99830.00
2018-06-21T14:21:17.667Z,99839.00
2018-06-21T14:23:23.042Z,99837.00
2018-06-21T14:25:27.466Z,99836.00
2018-06-21T14:27:31.980Z,99845.00
2018-06-21T14:29:36.492Z,99841.00
2018-06-21T14:31:40.963Z,99849.00
2018-06-21T14:33:45.613Z,99848.00
2018-06-21T14:35:50.021Z,99857.00
2018-06-21T14:37:54.488Z,99850.00
2018-06-21T14:39:58.931Z,99852.00
2018-06-21T14:42:03.375Z,99862.00
2018-06-21T14:44:10.732Z,99861.00
2018-06-21T14:46:15.129Z,99856.00
2018-06-21T14:48:19.661Z,99863.00
2018-06-21T14:50:24.044Z,99872.00
2018-06-21T14:52:28.506Z,99860.00
2018-06-21T14:54:32.946Z,99871.00
2018-06-21T14:56:37.329Z,99872.00
2018-06-21T14:58:42.490Z,99877.00
2018-06-21T15:00:46.987Z,99883.00
2018-06-21T15:02:51.482Z,99888.00
2018-06-21T15:04:55.928Z,99881.00
2018-06-21T15:07:00.419Z,99878.00
2018-06-21T15:09:09.109Z,99870.00
2018-06-21T15:11:14.684Z,99883.00
2018-06-21T15:13:19.116Z,99880.00
2018-06-21T15:15:23.538Z,99884.00
2018-06-21T15:17:28.633Z,99882.00
2018-06-21T15:19:33.029Z,99891.00
2018-06-21T15:21:37.506Z,99883.00
2018-06-21T15:23:42.166Z,99896.00
2018-06-21T15:25:47.191Z,99889.00
2018-06-21T15:27:51.678Z,99903.00
2018-06-21T15:29:56.085Z,99902.00
2018-06-21T15:32:00.284Z,99894.00
2018-06-21T15:34:04.793Z,99902.00
2018-06-21T15:36:09.285Z,99897.00
2018-06-21T15:38:17.651Z,99903.00
2018-06-21T15:40:22.190Z,99897.00
2018-06-21T15:42:26.611Z,99909.00
2018-06-21T15:44:31.032Z,99917.00
2018-06-21T15:46:35.578Z,99922.00
2018-06-21T15:48:40.183Z,99932.00
2018-06-21T15:50:44.691Z,99923.00
2018-06-21T15:52:49.700Z,99930.00
2018-06-21T15:54:54.216Z,99927.00
2018-06-21T15:56:58.671Z,99933.00
2018-06-21T15:59:03.165Z,99929.00
2018-06-21T16:01:07.819Z,99937.00
2018-06-21T16:03:12.417Z,99937.00
2018-06-21T16:05:16.850Z,99943.00
2018-06-21T16:07:21.370Z,99940.00
2018-06-21T16:09:26.079Z,99937.00
2018-06-21T16:11:30.499Z,99939.00
2018-06-21T16:13:34.951Z,99942.00
2018-06-21T16:15:39.374Z,99954.00
2018-06-21T16:17:43.988Z,99952.00
2018-06-21T16:19:49.331Z,99956.00
2018-06-21T16:21:53.856Z,99961.00
2018-06-21T16:23:58.242Z,99969.00
2018-06-21T16:26:02.746Z,99962.00
2018-06-21T16:28:07.510Z,99970.00
2018-06-21T16:30:13.042Z,99971.00
2018-06-21T16:32:17.983Z,99973.00
2018-06-21T16:34:22.501Z,99967.00
2018-06-21T16:36:28.191Z,99978.00
2018-06-21T16:38:33.222Z,99975.00
2018-06-21T16:40:37.776Z,99976.00
2018-06-21T16:42:42.387Z,99977.00
2018-06-21T16:44:46.963Z,99975.00
2018-06-21T16:46:51.153Z,99968.00
2018-06-21T16:48:55.775Z,99972.00
2018-06-21T16:51:00.580Z,99979.00
2018-06-21T16:53:05.235Z,99981.00
2018-06-21T16:55:09.917Z,99978.00
2018-06-21T16:57:14.508Z,99975.00
2018-06-21T16:59:19.584Z,99983.00
2018-06-21T17:01:26.055Z,99970.00
2018-06-21T17:03:30.812Z,99972.00
2018-06-21T17:05:35.351Z,99979.00
2018-06-21T17:07:40.008Z,99985.00
2018-06-21T17:09:44.489Z,99985.00
2018-06-21T17:11:49.533Z,99989.00
2018-06-21T17:13:54.256Z,99990.00
2018-06-21T17:15:58.727Z,99987.00
2018-06-21T17:18:03.501Z,99995.00
2018-06-21T17:20:08.614Z,99996.00
2018-06-21T17:22:13.868Z,100002.00
2018-06-21T17:24:18.930Z,100008.00
2018-06-21T17:26:23.662Z,100019.00
2018-06-21T17:28:28.948Z,100017.00
2018-06-21T17:30:34.059Z,100014.00
2018-06-21T17:32:39.025Z,100011.00
2018-06-21T17:34:43.540Z,100017.00
2018-06-21T17:36:49.790Z,100011.00
2018-06-21T17:38:54.274Z,100010.00
2018-06-21T17:40:58.856Z,100015.00
2018-06-21T17:43:03.967Z,100028.00
2018-06-21T17:45:08.487Z,100027.00
2018-06-21T17:47:14.384Z,100029.00
2018-06-21T17:49:19.899Z,100033.00
2018-06-21T17:51:24.537Z,100036.00
2018-06-21T17:53:29.035Z,100025.00
2018-06-21T17:55:36.186Z,100029.00
2018-06-21T17:57:40.888Z,100036.00
2018-06-21T17:59:45.799Z,100039.00
2018-06-21T18:01:50.485Z,100032.00
2018-06-21T18:03:55.344Z,100034.00
2018-06-21T18:06:00.188Z,100042.00
2018-06-21T18:08:05.185Z,100047.00
2018-06-21T18:10:10.328Z,100040.00
2018-06-21T18:12:15.063Z,100042.00
2018-06-21T18:14:20.518Z,100043.00
2018-06-21T18:16:25.192Z,100043.00
2018-06-21T18:18:29.631Z,100038.00
2018-06-21T18:20:34.087Z,100030.00
2018-06-21T18:22:38.627Z,100035.00
2018-06-21T18:24:43.821Z,100029.00
2018-06-21T18:26:48.317Z,100031.00
2018-06-21T18:28:54.025Z,100029.00
2018-06-21T18:30:58.609Z,100029.00
2018-06-21T18:33:03.722Z,100035.00
2018-06-21T18:35:11.135Z,100033.00
2018-06-21T18:37:16.894Z,100029.00
2018-06-21T18:39:21.400Z,100031.00
2018-06-21T18:41:25.815Z,100020.00
2018-06-21T18:43:30.242Z,100029.00
2018-06-21T18:45:34.706Z,100032.00
2018-06-21T18:47:39.430Z,100037.00
2018-06-21T18:49:43.890Z,100042.00
2018-06-21T18:51:48.012Z,100046.00
2018-06-21T18:53:52.572Z,100039.00
2018-06-21T18:55:58.170Z,100048.00
2018-06-21T18:58:02.652Z,100042.00
2018-06-21T19:00:09.203Z,100051.00
2018-06-21T19:02:14.361Z,100049.00
2018-06-21T19:04:18.907Z,100038.00
2018-06-21T19:06:28.650Z,100042.00
2018-06-21T19:08:38.580Z,100039.00
2018-06-21T19:10:48.559Z,100046.00
2018-06-21T19:12:53.995Z,100044.00
2018-06-21T19:14:58.508Z,100044.00
2018-06-21T19:17:03.007Z,100042.00
2018-06-21T19:19:07.617Z,100048.00
2018-06-21T19:21:12.361Z,100049.00
2018-06-21T19:23:16.994Z,100051.00
2018-06-21T19:25:21.952Z,100056.00
2018-06-21T19:27:31.368Z,100053.00
2018-06-21T19:29:38.441Z,100046.00
2018-06-21T19:31:43.049Z,100053.00
2018-06-21T19:33:47.930Z,100050.00
2018-06-21T19:35:54.063Z,100059.00
2018-06-21T19:37:59.496Z,100069.00
2018-06-21T19:40:07.649Z,100064.00
2018-06-21T19:42:17.958Z,100066.00
2018-06-21T19:44:23.360Z,100069.00
2018-06-21T19:46:31.118Z,100078.00
2018-06-21T19:48:38.587Z,100074.00
2018-06-21T19:50:43.075Z,100079.00
2018-06-21T19:52:47.807Z,100080.00
2018-06-21T19:54:52.262Z,100081.00
2018-06-21T19:56:56.894Z,100098.00
2018-06-21T19:59:01.348Z,100085.00
2018-06-21T20:01:06.100Z,100095.00
2018-06-21T20:03:10.829Z,100092.00
2018-06-21T20:05:17.957Z,100095.00
2018-06-21T20:07:24.050Z,100098.00
2018-06-21T20:09:33.107Z,100102.00
2018-06-21T20:11:40.141Z,100098.00
2018-06-21T20:13:47.702Z,100112.00
2018-06-21T20:15:54.208Z,100112.00
2018-06-21T20:18:00.162Z,100108.00
2018-06-21T20:20:09.917Z,100113.00
2018-06-21T20:22:14.475Z,100114.00
2018-06-21T20:24:19.578Z,100113.00
2018-06-21T20:26:25.051Z,100110.00
2018-06-21T20:28:30.583Z,100113.00
2018-06-21T20:30:35.024Z,100117.00
2018-06-21T20:32:39.359Z,100120.00
2018-06-21T20:34:43.813Z,100120.00
2018-06-21T20:36:48.327Z,100129.00
2018-06-21T20:38:52.736Z,100126.00
2018-06-21T20:40:57.227Z,100129.00
2018-06-21T20:43:01.677Z,100143.00
2018-06-21T20:45:06.500Z,100129.00
2018-06-21T20:47:13.057Z,100142.00
2018-06-21T20:49:17.561Z,100140.00
2018-06-21T20:51:21.755Z,100147.00
2018-06-21T20:53:26.206Z,100148.00
2018-06-21T20:55:30.954Z,100141.00
2018-06-21T20:57:35.434Z,100154.00
2018-06-21T20:59:40.016Z,100147.00
2018-06-21T21:01:45.079Z,100156.00
2018-06-21T21:03:49.607Z,100149.00
2018-06-21T21:05:54.235Z,100152.00
2018-06-21T21:07:58.659Z,100158.00
2018-06-21T21:10:03.559Z,100156.00
2018-06-21T21:12:08.029Z,100170.00
2018-06-21T21:14:12.475Z,100163.00
2018-06-21T21:16:17.278Z,100159.00
2018-06-21T21:18:21.926Z,100163.00
2018-06-21T21:20:26.392Z,100171.00
2018-06-21T21:22:31.049Z,100171.00
2018-06-21T21:24:35.544Z,100177.00
2018-06-21T21:26:40.274Z,100168.00
2018-06-21T21:28:45.734Z,100163.00
2018-06-21T21:30:50.480Z,100172.00
2018-06-21T21:32:54.887Z,100176.00
2018-06-21T21:35:00.460Z,100173.00
2018-06-21T21:37:04.988Z,100166.00
2018-06-21T21:39:10.702Z,100161.00
2018-06-21T21:41:15.132Z,100171.00
2018-06-21T21:43:20.694Z,100171.00
2018-06-21T21:45:25.105Z,100171.00
2018-06-21T21:47:31.286Z,100167.00
2018-06-21T21:49:37.669Z,100174.00
2018-06-21T21:51:42.246Z,100165.00
2018-06-21T21:53:46.506Z,100170.00
2018-06-21T21:55:52.650Z,100169.00
2018-06-21T21:58:00.538Z,100167.00
2018-06-21T22:00:17.905Z,100173.00
2018-06-21T22:02:23.509Z,100171.00
2018-06-21T22:04:28.343Z,100167.00
2018-06-21T22:06:34.600Z,100166.00
2018-06-21T22:08:39.021Z,100168.00
2018-06-21T22:10:44.507Z,100171.00
2018-06-21T22:12:48.980Z,100169.00
2018-06-21T22:14:53.530Z,100173.00
2018-06-21T22:16:57.891Z,100168.00
2018-06-21T22:19:02.583Z,100175.00
2018-06-21T22:21:07.002Z,100173.00
2018-06-21T22:23:11.490Z,100170.00
2018-06-21T22:25:15.949Z,100169.00
2018-06-21T22:27:21.301Z,100166.00
2018-06-21T22:29:25.723Z,100161.00
2018-06-21T22:31:30.205Z,100171.00
2018-06-21T22:33:34.628Z,100164.00
2018-06-21T22:35:39.099Z,100165.00
2018-06-21T22:37:43.540Z,100163.00
2018-06-21T22:39:47.967Z,100171.00
2018-06-21T22:41:52.458Z,100168.00
2018-06-21T22:43:56.881Z,100167.00
2018-06-21T22:46:01.520Z,100161.00
2018-06-21T22:48:05.960Z,100159.00
2018-06-21T22:50:10.508Z,100172.00
2018-06-21T22:52:15.017Z,100156.00
2018-06-21T22:54:19.554Z,100169.00
2018-06-21T22:56:24.126Z,100154.00
2018-06-21T22:58:28.577Z,100154.00
2018-06-21T23:00:32.975Z,100164.00
2018-06-21T23:02:37.459Z,100164.00
2018-06-21T23:04:41.872Z,100160.00
2018-06-21T23:06:46.024Z,100160.00
2018-06-21T23:08:50.133Z,100159.00
2018-06-21T23:10:54.590Z,100155.00
2018-06-21T23:12:59.021Z,100154.00
2018-06-21T23:15:03.480Z,100149.00
2018-06-21T23:17:07.939Z,100155.00
2018-06-21T23:19:26.156Z,100145.00
2018-06-21T23:21:31.011Z,100154.00
2018-06-21T23:23:38.640Z,100155.00
2018-06-21T23:25:43.841Z,100153.00
2018-06-21T23:27:48.365Z,100147.00
2018-06-21T23:29:57.005Z,100144.00
2018-06-21T23:32:03.267Z,100154.00
2018-06-21T23:34:07.700Z,100148.00
2018-06-21T23:36:12.153Z,100144.00
2018-06-21T23:38:16.623Z,100153.00
2018-06-21T23:40:21.880Z,100149.00
2018-06-21T23:42:26.354Z,100147.00
2018-06-21T23:44:30.790Z,100151.00
2018-06-21T23:46:35.392Z,100156.00
2018-06-21T23:48:39.815Z,100143.00
2018-06-21T23:50:44.740Z,100140.00
2018-06-21T23:52:49.159Z,100150.00
2018-06-21T23:54:53.552Z,100147.00
2018-06-21T23:56:58.048Z,100144.00
2018-06-21T23:59:02.736Z,100147.00
